Time;durP1;ratioP1;P1;durP2;ratioP2;P2;SDS_P1;SDS_P2;PMS_P1;PMS_P2;Temp;Humidity;BMP_temperature;BMP_pressure;BME280_temperature;BME280_humidity;BME280_pressure;Samples;Min_cycle;Max_cycle;Signal;HPM_P1;HPM_P2
2023/01/02 00:00:43;;;;;;;16.58;5.97;;;;;;;10.93;100.00;101025.25;5038962;28;20439;-76
2023/01/02 00:03:08;;;;;;;13.32;6.18;;;;;;;10.98;100.00;101031.88;5036884;28;20117;-75
2023/01/02 00:05:35;;;;;;;18.73;6.93;;;;;;;11.01;100.00;101025.16;5042837;28;20510;-76
2023/01/02 00:08:00;;;;;;;19.77;6.05;;;;;;;10.95;100.00;101025.94;5039857;28;20064;-74
2023/01/02 00:10:25;;;;;;;19.33;5.72;;;;;;;11.04;100.00;101016.53;5040100;28;20388;-76
2023/01/02 00:12:51;;;;;;;15.90;6.43;;;;;;;11.06;100.00;101019.94;5041036;28;20033;-74
2023/01/02 00:15:16;;;;;;;23.17;6.05;;;;;;;10.99;100.00;101010.81;5038046;28;20079;-75
2023/01/02 00:17:42;;;;;;;22.07;6.30;;;;;;;10.94;100.00;101016.03;5043421;28;20029;-74
2023/01/02 00:20:07;;;;;;;20.60;7.40;;;;;;;10.89;100.00;101004.78;5038261;28;20029;-74
2023/01/02 00:22:33;;;;;;;15.20;6.32;;;;;;;10.98;100.00;100998.97;5040404;28;20026;-76
2023/01/02 00:24:58;;;;;;;20.20;6.00;;;;;;;11.06;100.00;100995.25;5042861;28;20083;-74
2023/01/02 00:27:24;;;;;;;13.73;6.00;;;;;;;11.05;100.00;100990.81;5041075;28;20571;-74
2023/01/02 00:29:49;;;;;;;13.57;6.10;;;;;;;11.07;100.00;100996.94;5043334;28;20091;-76
2023/01/02 00:32:14;;;;;;;19.40;6.73;;;;;;;11.10;100.00;100989.16;5040371;28;20037;-76
2023/01/02 00:34:40;;;;;;;16.80;5.97;;;;;;;11.06;100.00;100984.28;5039709;28;20028;-74
2023/01/02 00:37:05;;;;;;;26.73;7.28;;;;;;;11.00;100.00;100979.59;5040026;28;20037;-75
2023/01/02 00:39:30;;;;;;;17.88;6.47;;;;;;;11.02;100.00;100983.84;5042188;28;20041;-74
2023/01/02 00:41:56;;;;;;;17.38;6.07;;;;;;;11.08;100.00;100976.72;5043534;28;20582;-74
2023/01/02 00:44:21;;;;;;;15.03;6.17;;;;;;;11.09;100.00;100984.75;5037591;28;20129;-74
2023/01/02 00:46:47;;;;;;;18.35;6.50;;;;;;;11.04;100.00;100972.69;5038263;28;20035;-75
2023/01/02 00:49:12;;;;;;;17.03;5.87;;;;;;;11.06;100.00;100979.63;5040585;28;20037;-74
2023/01/02 00:51:38;;;;;;;17.43;7.57;;;;;;;11.12;100.00;100976.13;5046744;28;20121;-75
2023/01/02 00:54:03;;;;;;;15.40;6.23;;;;;;;11.17;100.00;100970.91;5036673;28;20025;-74
2023/01/02 00:56:29;;;;;;;14.65;6.55;;;;;;;11.12;100.00;100967.91;5039373;28;20372;-74
2023/01/02 00:58:54;;;;;;;16.30;6.70;;;;;;;11.11;100.00;100965.34;5040477;28;20524;-75
2023/01/02 01:01:19;;;;;;;21.02;6.80;;;;;;;11.11;100.00;100970.84;5041103;28;20020;-75
2023/01/02 01:03:45;;;;;;;16.08;6.05;;;;;;;11.25;100.00;100970.75;5038718;28;20022;-75
2023/01/02 01:06:13;;;;;;;19.10;7.05;;;;;;;11.15;100.00;100970.25;5036308;28;20454;-74
2023/01/02 01:08:39;;;;;;;22.48;6.55;;;;;;;11.26;100.00;100966.13;5035447;28;20493;-74
2023/01/02 01:11:06;;;;;;;12.10;5.60;;;;;;;11.36;100.00;100952.91;5041757;28;20016;-74
2023/01/02 01:13:31;;;;;;;11.88;5.63;;;;;;;11.39;100.00;100952.50;5034101;28;20051;-74
2023/01/02 01:16:13;;;;;;;13.27;6.07;;;;;;;11.40;100.00;100951.44;5054699;28;20685;-74
2023/01/02 01:18:39;;;;;;;11.15;4.88;;;;;;;11.24;100.00;100947.13;5039161;28;20112;-74
2023/01/02 01:21:06;;;;;;;15.40;6.50;;;;;;;11.41;100.00;100950.41;5039291;28;20028;-74
2023/01/02 01:23:32;;;;;;;23.13;6.60;;;;;;;11.36;100.00;100944.69;5032081;28;20477;-74
2023/01/02 01:25:58;;;;;;;21.03;6.87;;;;;;;11.36;100.00;100941.94;5040551;28;20103;-75
2023/01/02 01:28:23;;;;;;;12.40;5.50;;;;;;;11.36;100.00;100944.69;5035549;28;20091;-74
2023/01/02 01:30:48;;;;;;;15.23;5.97;;;;;;;11.32;100.00;100943.38;5033991;28;20061;-75
2023/01/02 01:33:14;;;;;;;12.20;5.83;;;;;;;11.32;100.00;100941.47;5037592;28;20477;-74
2023/01/02 01:35:39;;;;;;;24.40;7.00;;;;;;;11.40;100.00;100945.97;5039030;28;20112;-76
2023/01/02 01:38:05;;;;;;;17.95;7.05;;;;;;;11.32;100.00;100935.16;5034557;28;20090;-74
2023/01/02 01:40:37;;;;;;;16.23;5.80;;;;;;;11.32;100.00;100938.72;5036829;28;20036;-74
2023/01/02 01:43:02;;;;;;;13.60;5.45;;;;;;;11.41;100.00;100942.16;5034111;28;20037;-74
2023/01/02 01:45:28;;;;;;;25.00;6.50;;;;;;;11.32;100.00;100932.41;5041055;28;20043;-73
2023/01/02 01:47:59;;;;;;;16.47;6.17;;;;;;;11.29;100.00;100939.16;5031689;28;20037;-74
2023/01/02 01:50:34;;;;;;;26.00;6.47;;;;;;;11.37;100.00;100947.22;5039639;28;20621;-73
2023/01/02 01:53:06;;;;;;;14.50;5.72;;;;;;;11.35;100.00;100942.97;5049794;28;20053;-73
2023/01/02 01:55:37;;;;;;;18.13;6.05;;;;;;;11.49;100.00;100947.50;5036817;28;20052;-74
2023/01/02 01:58:14;;;;;;;15.32;5.90;;;;;;;11.56;100.00;100948.41;5037786;28;20029;-73
2023/01/02 02:00:41;;;;;;;16.35;5.82;;;;;;;11.62;100.00;100948.47;5035761;28;20392;-74
2023/01/02 02:03:12;;;;;;;19.40;6.20;;;;;;;11.68;100.00;100949.59;5033967;28;20095;-73
2023/01/02 02:05:38;;;;;;;12.75;6.07;;;;;;;11.69;100.00;100959.50;5036475;28;20045;-74
2023/01/02 02:08:45;;;;;;;18.02;5.05;;;;;;;11.72;100.00;100964.56;5036980;28;20536;-74
2023/01/02 02:11:12;;;;;;;15.80;5.32;;;;;;;11.72;100.00;100970.06;5033823;28;20040;-74
2023/01/02 02:13:38;;;;;;;19.55;5.00;;;;;;;11.81;100.00;100975.22;5038656;28;20025;-73
2023/01/02 02:16:16;;;;;;;20.50;6.13;;;;;;;11.74;100.00;100970.72;5040619;28;20035;-73
2023/01/02 02:18:41;;;;;;;14.80;5.00;;;;;;;11.85;100.00;100975.66;5038441;28;20029;-74
2023/01/02 02:21:24;;;;;;;19.23;4.87;;;;;;;11.91;100.00;100972.91;5038591;28;20461;-73
2023/01/02 02:24:11;;;;;;;17.38;4.68;;;;;;;11.87;100.00;100971.66;5030433;28;20037;-74
2023/01/02 02:27:08;;;;;;;15.90;6.10;;;;;;;11.98;100.00;100973.81;5034701;28;20437;-74
2023/01/02 02:30:09;;;;;;;17.25;4.82;;;;;;;12.02;100.00;100979.75;5037505;28;20036;-74
2023/01/02 02:32:56;;;;;;;15.45;4.72;;;;;;;12.11;100.00;100967.56;5029882;28;20400;-74
2023/01/02 02:35:48;;;;;;;15.80;5.40;;;;;;;12.15;100.00;100971.56;5038778;28;20052;-75
2023/01/02 02:38:28;;;;;;;14.05;5.22;;;;;;;12.04;100.00;100959.28;5038299;28;20063;-74
2023/01/02 02:41:23;;;;;;;19.17;6.20;;;;;;;12.07;100.00;100969.84;5036316;28;20032;-73
2023/01/02 02:44:07;;;;;;;13.40;5.00;;;;;;;12.07;100.00;100961.59;5035583;28;20420;-74
2023/01/02 02:47:01;;;;;;;16.92;5.47;;;;;;;12.13;100.00;100958.06;5037379;28;20060;-74
2023/01/02 02:49:39;;;;;;;13.60;5.20;;;;;;;12.14;100.00;100962.50;5039744;28;20452;-75
2023/01/02 02:52:16;;;;;;;20.35;5.75;;;;;;;12.16;100.00;100945.81;5034217;28;20032;-73
2023/01/02 02:54:45;;;;;;;16.55;5.95;;;;;;;12.18;100.00;100955.50;5035901;28;20021;-75
2023/01/02 02:57:12;;;;;;;11.98;5.00;;;;;;;12.26;100.00;100949.00;5037953;28;20369;-73
2023/01/02 02:59:39;;;;;;;18.48;6.03;;;;;;;12.24;100.00;100949.22;5037479;28;20029;-74
2023/01/02 03:02:05;;;;;;;20.80;5.20;;;;;;;12.36;100.00;100954.94;5039096;28;20496;-76
2023/01/02 03:04:31;;;;;;;14.20;5.17;;;;;;;12.37;100.00;100951.16;5039548;28;20037;-75
2023/01/02 03:07:17;;;;;;;14.33;5.57;;;;;;;12.44;100.00;100949.28;5038866;28;20029;-74
2023/01/02 03:09:54;;;;;;;20.45;4.95;;;;;;;12.42;100.00;100946.75;5040511;28;20025;-75
2023/01/02 03:12:43;;;;;;;14.35;5.45;;;;;;;12.39;100.00;100951.81;5034935;28;20108;-75
2023/01/02 03:15:16;;;;;;;18.20;5.22;;;;;;;12.42;100.00;100954.13;5037423;28;20063;-75
2023/01/02 03:17:44;;;;;;;16.38;4.72;;;;;;;12.35;100.00;100950.53;5038652;28;20037;-75
2023/01/02 03:20:14;;;;;;;27.10;5.07;;;;;;;12.32;100.00;100945.47;5039545;28;20077;-75
2023/01/02 03:22:45;;;;;;;14.75;4.35;;;;;;;12.43;100.00;100940.19;5037605;28;20045;-75
2023/01/02 03:25:13;;;;;;;23.73;5.47;;;;;;;12.46;100.00;100947.16;5037295;28;20036;-75
2023/01/02 03:27:46;;;;;;;16.80;4.50;;;;;;;12.46;100.00;100949.91;5036362;28;20036;-75
2023/01/02 03:30:20;;;;;;;17.02;4.70;;;;;;;12.44;100.00;100949.28;5033536;28;20032;-75
2023/01/02 03:33:01;;;;;;;9.57;3.85;;;;;;;12.40;100.00;100959.00;5035078;28;20382;-76
2023/01/02 03:35:36;;;;;;;14.07;3.85;;;;;;;12.35;100.00;100953.28;5039110;28;20484;-75
2023/01/02 03:38:05;;;;;;;13.98;3.75;;;;;;;12.39;100.00;100958.13;5033512;28;20111;-75
2023/01/02 03:40:38;;;;;;;13.25;3.67;;;;;;;12.35;100.00;100956.88;5032818;28;20056;-75
2023/01/02 03:43:12;;;;;;;13.63;4.13;;;;;;;12.34;100.00;100957.91;5038228;28;20056;-74
2023/01/02 03:45:53;;;;;;;14.27;3.78;;;;;;;12.33;100.00;100961.72;5031190;28;20102;-75
2023/01/02 03:48:32;;;;;;;13.73;3.47;;;;;;;12.31;100.00;100963.81;5024341;28;20045;-75
2023/01/02 03:51:01;;;;;;;13.82;4.10;;;;;;;12.30;100.00;100969.50;5036389;28;20017;-75
2023/01/02 03:53:30;;;;;;;12.52;3.95;;;;;;;12.29;100.00;100967.81;5033493;28;20017;-75
2023/01/02 03:55:55;;;;;;;14.73;3.95;;;;;;;12.32;100.00;100967.44;5035135;28;20512;-76
2023/01/02 03:58:31;;;;;;;15.63;4.43;;;;;;;12.26;100.00;100970.97;5031395;28;20025;-75
2023/01/02 04:01:10;;;;;;;13.05;4.22;;;;;;;12.26;100.00;100980.06;5033988;28;20026;-75
2023/01/02 04:03:46;;;;;;;14.25;3.70;;;;;;;12.27;100.00;100973.53;5034567;28;20116;-75
2023/01/02 04:06:14;;;;;;;9.32;3.97;;;;;;;12.27;100.00;100986.44;5036263;28;20476;-76
2023/01/02 04:08:51;;;;;;;14.57;4.45;;;;;;;12.31;100.00;100985.81;5031428;28;20033;-75
2023/01/02 04:11:19;;;;;;;12.50;4.68;;;;;;;12.27;100.00;100973.53;5036715;28;20607;-75
2023/01/02 04:13:58;;;;;;;9.73;4.25;;;;;;;12.28;100.00;100977.94;5036358;28;20036;-76
2023/01/02 04:16:29;;;;;;;14.23;4.35;;;;;;;12.30;100.00;100981.38;5034376;28;20026;-75
2023/01/02 04:19:07;;;;;;;11.75;4.50;;;;;;;12.26;100.00;100985.56;5039854;28;20036;-75
2023/01/02 04:21:37;;;;;;;14.60;5.28;;;;;;;12.29;100.00;100987.91;5036909;28;20040;-75
2023/01/02 04:24:06;;;;;;;18.88;3.92;;;;;;;12.32;100.00;100989.41;5031195;28;20064;-75
2023/01/02 04:26:39;;;;;;;18.08;4.38;;;;;;;12.31;100.00;100996.78;5032406;28;21376;-75
2023/01/02 04:29:05;;;;;;;17.52;3.92;;;;;;;12.27;100.00;101000.16;5035956;28;20544;-75
2023/01/02 04:31:46;;;;;;;12.10;4.23;;;;;;;12.22;100.00;101000.75;5037416;28;20108;-74
2023/01/02 04:34:14;;;;;;;10.07;3.70;;;;;;;12.12;100.00;101003.03;5030379;28;20052;-75
2023/01/02 04:36:40;;;;;;;14.65;4.13;;;;;;;12.13;100.00;101012.13;5038716;28;20029;-75
2023/01/02 04:39:06;;;;;;;9.60;4.30;;;;;;;12.06;100.00;101000.25;5041341;28;20147;-75
2023/01/02 04:41:32;;;;;;;9.75;3.53;;;;;;;12.05;100.00;101006.78;5038001;28;20282;-75
2023/01/02 04:43:58;;;;;;;12.77;3.92;;;;;;;12.02;100.00;101012.69;5034065;28;20436;-75
2023/01/02 04:46:26;;;;;;;11.45;4.00;;;;;;;12.05;100.00;101010.38;5034663;28;20480;-76
2023/01/02 04:48:53;;;;;;;13.73;4.78;;;;;;;12.03;100.00;101017.13;5041140;28;20056;-76
2023/01/02 04:51:19;;;;;;;16.33;4.78;;;;;;;11.95;100.00;101015.38;5034865;28;20580;-75
2023/01/02 04:53:53;;;;;;;10.50;4.60;;;;;;;11.96;100.00;101019.81;5036340;28;20037;-76
2023/01/02 04:56:19;;;;;;;11.32;4.65;;;;;;;11.95;100.00;101009.06;5040289;28;20034;-75
2023/01/02 04:58:45;;;;;;;15.30;4.97;;;;;;;11.95;100.00;101033.78;5037698;28;20037;-76
2023/01/02 05:01:14;;;;;;;15.32;4.32;;;;;;;11.93;100.00;101035.84;5039277;28;20037;-75
2023/01/02 05:03:41;;;;;;;15.20;5.13;;;;;;;11.83;100.00;101055.44;5044503;28;20061;-74
2023/01/02 05:06:07;;;;;;;;;;;;;;;11.35;100.00;101069.13;5038683;28;20120;-75
2023/01/02 05:08:33;;;;;;;5.68;3.50;;;;;;;11.10;100.00;101084.28;5040658;28;19917;-75
2023/01/02 05:11:07;;;;;;;6.20;2.77;;;;;;;10.85;100.00;101097.50;5044284;28;20052;-75
2023/01/02 05:13:32;;;;;;;3.95;3.13;;;;;;;10.82;100.00;101106.09;5037744;28;20048;-75
2023/01/02 05:15:58;;;;;;;3.97;2.60;;;;;;;10.62;100.00;101115.13;5035588;28;20104;-75
2023/01/02 05:18:23;;;;;;;3.45;2.60;;;;;;;10.47;100.00;101117.03;5039715;28;20137;-75
2023/01/02 05:20:48;;;;;;;3.58;2.13;;;;;;;10.43;100.00;101122.03;5039050;28;20037;-75
2023/01/02 05:25:58;;;;;;;2.45;2.03;;;;;;;10.30;100.00;101140.16;5038371;28;20039;-75
2023/01/02 05:28:23;;;;;;;3.03;2.63;;;;;;;10.17;100.00;101145.44;5037981;28;20045;-74
2023/01/02 05:30:48;;;;;;;4.50;2.85;;;;;;;10.15;100.00;101147.50;5038103;28;20037;-74
2023/01/02 05:33:14;;;;;;;4.72;2.55;;;;;;;10.12;100.00;101154.22;5033829;28;20063;-74
2023/01/02 05:35:40;;;;;;;5.63;2.47;;;;;;;10.05;100.00;101158.75;5036713;28;20032;-74
2023/01/02 05:38:05;;;;;;;4.50;2.80;;;;;;;10.02;100.00;101171.88;5043312;28;20028;-74
2023/01/02 05:40:31;;;;;;;3.63;3.03;;;;;;;9.95;100.00;101173.69;5036017;28;20472;-75
2023/01/02 05:42:57;;;;;;;3.78;3.00;;;;;;;9.98;100.00;101187.00;5034325;28;20060;-74
2023/01/02 05:45:23;;;;;;;3.42;3.13;;;;;;;9.94;100.00;101202.09;5033379;28;20076;-74
2023/01/02 05:47:48;;;;;;;3.97;3.63;;;;;;;9.91;100.00;101216.97;5034369;28;20064;-74
2023/01/02 05:50:14;;;;;;;2.92;2.70;;;;;;;9.82;100.00;101218.06;5037191;28;20029;-75
2023/01/02 05:52:39;;;;;;;3.20;2.90;;;;;;;9.75;100.00;101222.59;5035496;28;20029;-74
2023/01/02 05:55:05;;;;;;;5.35;2.95;;;;;;;9.75;100.00;101232.66;5038478;28;20075;-75
2023/01/02 05:57:30;;;;;;;3.42;3.08;;;;;;;9.71;100.00;101239.56;5039740;28;20111;-75
2023/01/02 05:59:55;;;;;;;4.00;3.60;;;;;;;9.71;100.00;101245.84;5040353;28;20395;-75
2023/01/02 06:02:21;;;;;;;3.80;3.40;;;;;;;9.66;100.00;101251.03;5034870;28;20021;-74
2023/01/02 06:04:46;;;;;;;7.97;3.92;;;;;;;9.67;100.00;101258.19;5042555;28;20036;-75
2023/01/02 06:07:11;;;;;;;5.45;3.50;;;;;;;9.68;100.00;101265.38;5036850;28;20028;-74
2023/01/02 06:09:37;;;;;;;5.27;4.07;;;;;;;9.65;100.00;101265.72;5038639;28;20063;-74
2023/01/02 06:12:02;;;;;;;4.10;3.70;;;;;;;9.59;100.00;101261.00;5037591;28;20481;-74
2023/01/02 06:14:28;;;;;;;5.50;3.75;;;;;;;9.54;100.00;101265.28;5033303;28;20064;-74
2023/01/02 06:16:53;;;;;;;5.75;4.70;;;;;;;9.56;100.00;101276.91;5038521;28;20060;-75
2023/01/02 06:19:18;;;;;;;5.10;3.50;;;;;;;9.54;100.00;101284.44;5040451;28;20029;-74
2023/01/02 06:21:44;;;;;;;3.58;3.28;;;;;;;9.50;100.00;101283.09;5034846;28;20440;-75
2023/01/02 06:24:09;;;;;;;3.97;3.53;;;;;;;9.51;100.00;101284.81;5038983;28;20518;-75
2023/01/02 06:26:35;;;;;;;4.57;3.60;;;;;;;9.51;100.00;101284.81;5035357;28;20029;-74
2023/01/02 06:29:01;;;;;;;4.00;3.37;;;;;;;9.51;100.00;101290.28;5039135;28;20427;-75
2023/01/02 06:31:27;;;;;;;5.27;3.10;;;;;;;9.55;100.00;101299.84;5040537;28;20105;-74
2023/01/02 06:33:53;;;;;;;3.70;2.80;;;;;;;9.51;100.00;101301.22;5031535;28;20044;-75
2023/01/02 06:36:19;;;;;;;4.35;3.65;;;;;;;9.47;100.00;101308.94;5037953;28;20033;-74
2023/01/02 06:38:45;;;;;;;5.03;4.03;;;;;;;9.45;100.00;101319.16;5038312;28;20040;-74
2023/01/02 06:41:11;;;;;;;6.10;3.53;;;;;;;9.45;100.00;101315.59;5035676;28;20025;-74
2023/01/02 06:43:42;;;;;;;4.80;4.30;;;;;;;9.44;100.00;101324.84;5034324;28;20041;-74
2023/01/02 06:46:08;;;;;;;4.97;3.95;;;;;;;9.36;100.00;101324.88;5036943;28;20131;-74
2023/01/02 06:48:34;;;;;;;6.18;3.97;;;;;;;9.33;100.00;101331.53;5037133;28;20049;-74
2023/01/02 06:51:04;;;;;;;5.13;3.47;;;;;;;9.33;100.00;101347.06;5035439;28;20033;-74
2023/01/02 06:53:33;;;;;;;9.85;4.18;;;;;;;9.31;100.00;101344.53;5037746;28;20112;-74
2023/01/02 06:55:58;;;;;;;5.25;4.45;;;;;;;9.33;100.00;101339.75;5035333;28;20090;-74
2023/01/02 06:58:27;;;;;;;8.32;4.30;;;;;;;9.29;100.00;101343.00;5038681;28;20034;-74
2023/01/02 07:00:53;;;;;;;6.10;3.60;;;;;;;9.29;100.00;101348.47;5033043;28;20033;-75
2023/01/02 07:03:18;;;;;;;5.25;3.67;;;;;;;9.19;100.00;101345.94;5038307;28;20462;-75
2023/01/02 07:05:43;;;;;;;6.60;3.78;;;;;;;9.24;100.00;101359.09;5038759;28;20336;-76
2023/01/02 07:08:10;;;;;;;4.80;3.90;;;;;;;9.25;100.00;101379.94;5037318;28;20063;-74
2023/01/02 07:10:35;;;;;;;9.18;3.53;;;;;;;9.19;100.00;101383.38;5034302;28;20029;-74
2023/01/02 07:13:01;;;;;;;4.03;3.50;;;;;;;9.17;100.00;101390.88;5040931;28;20484;-75
2023/01/02 07:15:26;;;;;;;10.05;3.75;;;;;;;9.18;100.00;101401.63;5036467;28;20067;-74
2023/01/02 07:17:52;;;;;;;5.20;3.42;;;;;;;9.13;100.00;101411.41;5034895;28;20119;-76
2023/01/02 07:20:18;;;;;;;3.90;3.43;;;;;;;9.14;100.00;101411.19;5038800;28;20032;-74
2023/01/02 07:22:51;;;;;;;4.95;3.30;;;;;;;9.13;100.00;101416.88;5038733;28;20104;-74
2023/01/02 07:25:18;;;;;;;4.18;3.05;;;;;;;9.09;100.00;101420.97;5038004;28;20117;-75
2023/01/02 07:27:44;;;;;;;;;;;;;;;9.13;100.00;101439.56;5035560;28;20029;-74
2023/01/02 07:30:10;;;;;;;4.32;2.40;;;;;;;9.06;100.00;101438.56;5041534;28;20663;-75
2023/01/02 07:32:35;;;;;;;3.45;2.17;;;;;;;9.05;100.00;101436.00;5038043;28;20048;-75
2023/01/02 07:35:01;;;;;;;3.95;2.40;;;;;;;9.07;100.00;101442.16;5034845;28;20021;-74
2023/01/02 07:37:26;;;;;;;3.72;2.55;;;;;;;9.06;100.00;101457.69;5024713;28;20041;-74
2023/01/02 07:39:51;;;;;;;3.45;2.55;;;;;;;9.07;100.00;101462.13;5034855;28;20063;-75
2023/01/02 07:42:17;;;;;;;5.65;3.88;;;;;;;9.04;100.00;101478.88;5031679;28;20028;-75
2023/01/02 07:44:42;;;;;;;4.70;3.45;;;;;;;9.01;100.00;101478.34;5033647;28;20125;-75
2023/01/02 07:47:08;;;;;;;3.22;2.92;;;;;;;8.98;100.00;101478.69;5043872;28;20099;-74
2023/01/02 07:49:33;;;;;;;10.20;3.70;;;;;;;8.98;100.00;101495.09;5035708;28;20020;-76
2023/01/02 07:51:58;;;;;;;6.20;3.45;;;;;;;8.96;100.00;101497.16;5034416;28;20035;-75
2023/01/02 07:54:24;;;;;;;3.92;2.83;;;;;;;8.97;100.00;101494.22;5033747;28;20128;-75
2023/01/02 07:56:49;;;;;;;13.48;3.15;;;;;;;8.94;100.00;101515.56;5037094;28;20056;-75
2023/01/02 07:59:15;;;;;;;6.93;3.50;;;;;;;8.94;100.00;101516.44;5037412;28;20480;-75
2023/01/02 08:01:40;;;;;;;11.73;2.92;;;;;;;8.94;100.00;101521.91;5041600;28;20025;-73
2023/01/02 08:04:06;;;;;;;7.50;3.05;;;;;;;8.99;100.00;101524.97;5037884;28;20037;-76
2023/01/02 08:06:32;;;;;;;7.72;3.63;;;;;;;8.94;100.00;101527.38;5036070;28;20547;-74
2023/01/02 08:08:57;;;;;;;10.15;3.45;;;;;;;8.95;100.00;101539.13;5037508;28;20055;-75
2023/01/02 08:11:23;;;;;;;9.27;4.20;;;;;;;8.97;100.00;101545.31;5038247;28;20087;-73
2023/01/02 08:13:48;;;;;;;12.30;4.03;;;;;;;9.01;100.00;101543.91;5041208;28;20538;-74
2023/01/02 08:16:16;;;;;;;10.60;4.38;;;;;;;8.98;100.00;101544.28;5041400;28;20029;-73
2023/01/02 08:18:42;;;;;;;5.57;4.55;;;;;;;8.98;100.00;101544.28;5043236;28;20036;-74
2023/01/02 08:21:08;;;;;;;11.00;4.60;;;;;;;8.97;100.00;101546.13;5040644;28;20021;-73
2023/01/02 08:23:34;;;;;;;5.43;4.15;;;;;;;9.03;100.00;101548.19;5042339;28;20135;-73
2023/01/02 08:26:07;;;;;;;9.30;5.05;;;;;;;9.01;100.00;101549.38;5046463;28;20025;-74
2023/01/02 08:28:33;;;;;;;5.00;2.97;;;;;;;9.02;100.00;101549.22;5033360;28;20131;-74
2023/01/02 08:30:59;;;;;;;5.38;3.25;;;;;;;8.99;100.00;101556.91;5035122;28;20104;-73
2023/01/02 08:33:25;;;;;;;11.83;3.30;;;;;;;8.98;100.00;101566.13;5040257;28;20120;-74
2023/01/02 08:35:50;;;;;;;8.38;2.80;;;;;;;8.99;100.00;101573.31;5035948;28;20063;-74
2023/01/02 08:38:16;;;;;;;9.40;2.73;;;;;;;8.93;100.00;101579.44;5036252;28;20083;-74
2023/01/02 08:40:41;;;;;;;5.88;2.50;;;;;;;8.96;100.00;101590.06;5042478;28;20025;-74
2023/01/02 08:43:07;;;;;;;13.60;3.05;;;;;;;8.92;100.00;101592.25;5036564;28;20056;-76
2023/01/02 08:45:34;;;;;;;11.60;3.63;;;;;;;8.91;100.00;101595.16;5040877;28;20049;-73
2023/01/02 08:48:00;;;;;;;9.93;2.13;;;;;;;8.92;100.00;101594.13;5038971;28;20086;-73
2023/01/02 08:50:25;;;;;;;12.15;2.17;;;;;;;8.97;100.00;101597.22;5039611;28;20025;-75
2023/01/02 08:52:51;;;;;;;5.22;1.90;;;;;;;8.96;100.00;101600.97;5038002;28;20029;-73
2023/01/02 08:55:16;;;;;;;7.07;1.93;;;;;;;8.94;100.00;101609.34;5037622;28;20029;-75
2023/01/02 08:57:42;;;;;;;7.80;2.00;;;;;;;8.93;100.00;101607.63;5038766;28;20111;-75
2023/01/02 09:00:08;;;;;;;10.00;2.13;;;;;;;8.99;100.00;101608.81;5043030;28;20105;-74
2023/01/02 09:02:34;;;;;;;4.13;1.63;;;;;;;8.93;100.00;101606.75;5035338;28;20033;-74
2023/01/02 09:04:59;;;;;;;10.85;2.20;;;;;;;8.96;100.00;101611.91;5043292;28;20055;-74
2023/01/02 09:07:25;;;;;;;8.55;2.08;;;;;;;8.99;100.00;101628.81;5047409;28;20032;-74
2023/01/02 09:09:50;;;;;;;10.90;2.47;;;;;;;9.03;100.00;101623.88;5047507;28;20027;-75
2023/01/02 09:12:16;;;;;;;7.73;1.70;;;;;;;9.02;100.00;101623.00;5034726;28;20396;-75
2023/01/02 09:14:41;;;;;;;11.73;1.58;;;;;;;9.04;100.00;101633.75;5038268;28;20029;-74
2023/01/02 09:17:07;;;;;;;14.48;1.70;;;;;;;9.07;100.00;101634.28;5039805;28;20056;-74
2023/01/02 09:19:32;;;;;;;8.52;1.48;;;;;;;9.06;100.00;101650.84;5035647;28;20029;-74
2023/01/02 09:22:00;;;;;;;12.93;2.22;;;;;;;9.05;100.00;101655.47;5037927;28;20025;-74
2023/01/02 09:24:26;;;;;;;9.73;1.35;;;;;;;9.08;100.00;101657.00;5036153;28;20448;-74
2023/01/02 09:26:52;;;;;;;10.93;1.80;;;;;;;9.04;100.00;101658.34;5035470;28;20033;-75
2023/01/02 09:29:18;;;;;;;16.63;1.70;;;;;;;9.02;100.00;101652.22;5041055;28;20025;-74
2023/01/02 09:31:43;;;;;;;9.02;1.95;;;;;;;8.98;100.00;101659.03;5042310;28;20041;-75
2023/01/02 09:34:08;;;;;;;6.63;1.60;;;;;;;9.00;100.00;101662.44;5040307;28;20404;-73
2023/01/02 09:36:34;;;;;;;6.93;1.60;;;;;;;8.98;100.00;101668.06;5037387;28;20074;-74
2023/01/02 09:39:00;;;;;;;7.38;2.08;;;;;;;9.00;100.00;101659.72;5039074;28;20018;-74
2023/01/02 09:41:42;;;;;;;13.18;1.40;;;;;;;8.91;100.00;101641.59;5037374;28;20102;-75
2023/01/02 09:44:14;;;;;;;8.05;1.77;;;;;;;8.94;100.00;101652.19;5035889;28;20053;-75
2023/01/02 09:46:44;;;;;;;8.57;1.27;;;;;;;8.95;100.00;101665.69;5039900;28;20040;-74
2023/01/02 09:49:14;;;;;;;5.47;1.58;;;;;;;8.95;100.00;101662.94;5036436;28;20042;-75
2023/01/02 09:51:40;;;;;;;4.78;1.67;;;;;;;8.96;100.00;101672.03;5033989;28;20036;-76
2023/01/02 09:54:14;;;;;;;8.48;1.30;;;;;;;8.99;100.00;101671.66;5035234;28;20021;-74
2023/01/02 09:56:44;;;;;;;4.80;1.27;;;;;;;9.03;100.00;101673.06;5053161;28;20516;-74
2023/01/02 09:59:25;;;;;;;10.27;1.30;;;;;;;9.07;100.00;101679.91;5039318;28;20031;-73
2023/01/02 10:01:57;;;;;;;8.77;1.45;;;;;;;9.07;100.00;101686.19;5033907;28;20087;-74
2023/01/02 10:04:46;;;;;;;11.55;1.70;;;;;;;9.11;100.00;101695.78;5030797;28;20449;-74
2023/01/02 10:07:34;;;;;;;12.35;1.88;;;;;;;9.14;100.00;101695.44;5040097;28;20029;-74
2023/01/02 10:10:13;;;;;;;9.18;1.35;;;;;;;9.23;100.00;101682.66;5035223;28;20029;-74
2023/01/02 10:12:54;;;;;;;11.20;1.67;;;;;;;9.26;100.00;101674.09;5038579;28;20037;-73
2023/01/02 10:15:25;;;;;;;8.95;1.83;;;;;;;9.32;100.00;101693.44;5031495;28;20045;-73
2023/01/02 10:17:56;;;;;;;7.68;1.50;;;;;;;9.35;100.00;101686.78;5037930;28;20040;-73
2023/01/02 10:20:27;;;;;;;12.30;2.45;;;;;;;9.44;100.00;101680.31;5038482;28;20033;-74
2023/01/02 10:23:00;;;;;;;12.73;1.75;;;;;;;9.42;100.00;101679.59;5035763;28;20047;-74
2023/01/02 10:25:44;;;;;;;11.68;2.08;;;;;;;9.42;100.00;101693.28;5039349;28;20033;-74
2023/01/02 10:28:31;;;;;;;7.53;1.50;;;;;;;9.48;100.00;101700.78;5038046;28;20052;-74
2023/01/02 10:31:03;;;;;;;8.20;1.92;;;;;;;9.52;100.00;101708.50;5032151;28;20025;-74
2023/01/02 10:33:46;;;;;;;8.82;2.08;;;;;;;9.55;100.00;101707.31;5037447;28;20052;-75
2023/01/02 10:36:22;;;;;;;5.40;1.63;;;;;;;9.45;100.00;101706.63;5035924;28;20029;-74
2023/01/02 10:38:47;;;;;;;13.88;2.30;;;;;;;9.48;100.00;101703.53;5033545;28;20116;-75
2023/01/02 10:41:12;;;;;;;6.38;2.13;;;;;;;9.50;100.00;101715.16;5033660;28;20507;-73
2023/01/02 10:43:38;;;;;;;10.95;2.30;;;;;;;9.46;100.00;101709.16;5031474;28;20107;-74
2023/01/02 10:46:03;;;;;;;11.77;2.40;;;;;;;9.52;100.00;101713.97;5034815;28;20041;-74
2023/01/02 10:48:33;;;;;;;13.02;2.28;;;;;;;9.50;100.00;101726.94;5037178;28;20377;-74
2023/01/02 10:51:05;;;;;;;9.98;2.20;;;;;;;9.45;100.00;101728.50;5031977;28;20041;-74
2023/01/02 10:53:35;;;;;;;13.05;2.80;;;;;;;9.50;100.00;101729.69;5042010;28;20492;-74
2023/01/02 10:56:03;;;;;;;18.85;4.10;;;;;;;9.52;100.00;101729.53;5033046;28;20025;-74
2023/01/02 10:58:31;;;;;;;15.35;3.75;;;;;;;9.46;100.00;101722.00;5034248;28;20040;-74
2023/01/02 11:01:18;;;;;;;11.27;3.58;;;;;;;9.44;100.00;101724.06;5031939;28;20029;-74
2023/01/02 11:04:11;;;;;;;6.80;3.78;;;;;;;9.50;100.00;101737.88;5033768;28;20032;-74
2023/01/02 11:06:53;;;;;;;13.07;4.43;;;;;;;9.57;100.00;101738.06;5032838;28;20029;-75
2023/01/02 11:09:22;;;;;;;15.25;5.00;;;;;;;9.57;100.00;101743.53;5039390;28;20029;-74
2023/01/02 11:11:50;;;;;;;16.23;5.65;;;;;;;9.59;100.00;101753.28;5035626;28;20021;-75
2023/01/02 11:14:20;;;;;;;13.95;4.82;;;;;;;9.63;100.00;101745.59;5036263;28;20032;-77
2023/01/02 11:16:46;;;;;;;17.27;6.43;;;;;;;9.60;100.00;101751.44;5034056;28;20397;-74
2023/01/02 11:19:20;;;;;;;12.82;5.90;;;;;;;9.60;100.00;101760.47;5036781;28;20032;-74
2023/01/02 11:21:47;;;;;;;14.23;6.40;;;;;;;9.60;100.00;101759.63;5036983;28;20044;-74
2023/01/02 11:24:18;;;;;;;20.88;6.65;;;;;;;9.61;100.00;101753.13;5034135;28;20033;-74
2023/01/02 11:26:46;;;;;;;16.40;6.85;;;;;;;9.69;100.00;101766.81;5033538;28;20053;-74
2023/01/02 11:29:22;;;;;;;21.02;8.20;;;;;;;9.68;100.00;101767.84;5033759;28;20033;-74